Time;durP1;ratioP1;P1;durP2;ratioP2;P2;SDS_P1;SDS_P2;PMS_P1;PMS_P2;Temp;Humidity;BMP_temperature;BMP_pressure;BME280_temperature;BME280_humidity;BME280_pressure;Samples;Min_cycle;Max_cycle;Signal;HPM_P1;HPM_P2
2022/10/11 00:00:24;;;;;;;12.25;11.55;;;;;;;5.16;100.00;101702.16;5019212;28;20125;-67
2022/10/11 00:02:49;;;;;;;12.52;11.82;;;;;;;5.24;100.00;101707.69;5022126;28;20075;-67
2022/10/11 00:05:15;;;;;;;13.00;12.20;;;;;;;5.22;100.00;101695.63;5021894;28;20029;-66
2022/10/11 00:07:41;;;;;;;12.38;11.68;;;;;;;5.14;100.00;101696.16;5028342;28;20075;-67
2022/10/11 00:10:09;;;;;;;12.05;11.35;;;;;;;5.15;100.00;101699.63;5021630;28;20496;-67
2022/10/11 00:12:35;;;;;;;11.80;11.18;;;;;;;5.15;100.00;101689.13;5022566;28;20038;-67
2022/10/11 00:15:02;;;;;;;11.50;10.90;;;;;;;5.05;100.00;101696.81;5026775;28;20025;-67
2022/10/11 00:17:28;;;;;;;11.75;11.13;;;;;;;4.99;100.00;101692.84;5024623;28;20025;-67
2022/10/11 00:19:54;;;;;;;12.32;11.63;;;;;;;5.00;100.00;101696.31;5020300;28;20060;-67
2022/10/11 00:22:19;;;;;;;12.60;11.90;;;;;;;4.74;100.00;101698.16;5024911;28;20392;-67
2022/10/11 00:24:45;;;;;;;13.25;12.45;;;;;;;4.88;100.00;101695.41;5021420;28;20037;-67
2022/10/11 00:27:10;;;;;;;12.57;11.88;;;;;;;4.91;100.00;101696.94;5026908;28;20036;-67
2022/10/11 00:29:37;;;;;;;12.95;12.15;;;;;;;4.87;100.00;101692.88;5024156;28;20052;-67
2022/10/11 00:32:02;;;;;;;12.60;11.90;;;;;;;4.83;100.00;101692.25;5020828;28;20030;-68
2022/10/11 00:34:28;;;;;;;12.48;11.77;;;;;;;4.75;100.00;101688.47;5019265;28;20030;-66
2022/10/11 00:36:53;;;;;;;13.30;12.50;;;;;;;4.77;100.00;101684.78;5018888;28;20049;-67
2022/10/11 00:39:19;;;;;;;13.05;12.25;;;;;;;4.72;100.00;101676.41;5022002;28;20105;-67
2022/10/11 00:41:46;;;;;;;12.55;11.85;;;;;;;4.72;100.00;101679.03;5025683;28;20035;-67
2022/10/11 00:44:14;;;;;;;12.35;11.65;;;;;;;4.81;100.00;101680.16;5042882;28;20033;-67
2022/10/11 00:46:43;;;;;;;12.95;12.15;;;;;;;4.72;100.00;101682.50;5019926;28;20133;-66
2022/10/11 00:49:18;;;;;;;12.52;11.82;;;;;;;4.70;100.00;101680.91;5023051;28;20040;-67
2022/10/11 00:51:55;;;;;;;12.35;11.65;;;;;;;4.66;100.00;101661.91;5023302;28;20037;-67
2022/10/11 00:54:24;;;;;;;12.77;11.98;;;;;;;4.62;100.00;101668.31;5025889;28;20030;-68
2022/10/11 00:56:55;;;;;;;12.35;11.65;;;;;;;4.63;100.00;101670.03;5018452;28;20038;-68
2022/10/11 00:59:25;;;;;;;12.50;11.80;;;;;;;4.50;100.00;101661.31;5028067;28;20412;-65
2022/10/11 01:01:53;;;;;;;12.20;11.50;;;;;;;4.43;100.00;101662.69;5028469;28;20028;-67
2022/10/11 01:04:19;;;;;;;12.55;11.85;;;;;;;4.48;100.00;101665.84;5024770;28;20036;-67
2022/10/11 01:06:47;;;;;;;12.52;11.82;;;;;;;4.42;100.00;101655.75;5032834;28;20025;-65
2022/10/11 01:09:13;;;;;;;12.55;11.85;;;;;;;4.46;100.00;101653.75;5023325;28;20033;-66
2022/10/11 01:11:41;;;;;;;14.75;13.70;;;;;;;4.24;100.00;101647.34;5026108;28;20488;-67
2022/10/11 01:14:28;;;;;;;13.02;12.23;;;;;;;4.14;100.00;101648.94;5046143;28;20044;-67
2022/10/11 01:17:04;;;;;;;12.93;12.18;;;;;;;4.20;100.00;101635.41;5024135;28;20029;-68
2022/10/11 01:19:53;;;;;;;12.60;11.90;;;;;;;4.26;100.00;101645.47;5028655;28;20476;-68
2022/10/11 01:22:31;;;;;;;13.25;12.45;;;;;;;4.23;100.00;101650.94;5025115;28;20112;-67
2022/10/11 01:25:05;;;;;;;13.05;12.25;;;;;;;4.32;100.00;101644.19;5026248;28;20053;-67
2022/10/11 01:27:42;;;;;;;12.20;11.52;;;;;;;4.23;100.00;101650.94;5024684;28;20032;-67
2022/10/11 01:30:27;;;;;;;12.60;11.90;;;;;;;4.23;100.00;101643.03;5031109;28;20048;-68
2022/10/11 01:33:08;;;;;;;13.25;12.45;;;;;;;4.27;100.00;101648.94;5027410;28;20189;-66
2022/10/11 01:35:56;;;;;;;12.52;11.82;;;;;;;4.18;100.00;101654.81;5045741;28;20034;-68
2022/10/11 01:38:43;;;;;;;12.48;11.77;;;;;;;4.16;100.00;101653.13;5025345;28;20021;-67
2022/10/11 01:41:18;;;;;;;12.90;12.10;;;;;;;4.14;100.00;101626.16;5026256;28;20029;-68
2022/10/11 01:43:45;;;;;;;12.95;12.15;;;;;;;3.83;100.00;101647.56;5024224;28;20577;-68
2022/10/11 01:46:11;;;;;;;13.00;12.20;;;;;;;3.96;100.00;101645.78;5026784;28;20031;-67
2022/10/11 01:48:51;;;;;;;12.43;11.73;;;;;;;4.11;100.00;101655.25;5023798;28;20056;-67
2022/10/11 01:51:21;;;;;;;12.32;11.63;;;;;;;4.15;100.00;101648.84;5025276;28;20061;-66
2022/10/11 01:53:59;;;;;;;14.35;13.32;;;;;;;3.90;100.00;101646.22;5020665;28;20041;-67
2022/10/11 01:56:30;;;;;;;12.20;11.50;;;;;;;3.81;100.00;101646.81;5025844;28;20025;-67
2022/10/11 01:59:11;;;;;;;11.85;11.25;;;;;;;3.94;100.00;101644.22;5023284;28;20604;-67
2022/10/11 02:01:54;;;;;;;12.52;11.82;;;;;;;4.01;100.00;101640.22;5023023;28;20083;-68
2022/10/11 02:04:52;;;;;;;12.63;11.82;;;;;;;4.01;100.00;101650.72;5022114;28;20026;-67
2022/10/11 02:07:21;;;;;;;12.38;11.68;;;;;;;4.09;100.00;101644.00;5024571;28;20531;-66
2022/10/11 02:10:20;;;;;;;13.05;12.25;;;;;;;3.97;100.00;101646.66;5021552;28;20507;-67
2022/10/11 02:12:56;;;;;;;12.70;11.90;;;;;;;3.77;100.00;101637.50;5012199;28;20046;-67
2022/10/11 02:15:26;;;;;;;12.10;11.43;;;;;;;3.47;100.00;101632.50;5028677;28;20064;-67
2022/10/11 02:17:56;;;;;;;13.20;12.40;;;;;;;3.34;100.00;101632.47;5029277;28;20099;-66
2022/10/11 02:20:25;;;;;;;13.18;12.38;;;;;;;3.31;100.00;101635.31;5017468;28;20025;-67
2022/10/11 02:22:57;;;;;;;13.00;12.20;;;;;;;3.18;100.00;101635.25;5022765;28;20485;-67
2022/10/11 02:25:28;;;;;;;13.63;12.75;;;;;;;3.30;100.00;101636.22;5028828;28;20036;-67
2022/10/11 02:27:59;;;;;;;13.02;12.23;;;;;;;3.32;100.00;101639.59;5023718;28;20102;-67
2022/10/11 02:30:24;;;;;;;12.80;12.07;;;;;;;3.19;100.00;101636.09;5026983;28;20036;-67
2022/10/11 02:32:51;;;;;;;12.65;11.95;;;;;;;3.22;100.00;101641.13;5025811;28;20030;-66
2022/10/11 02:35:18;;;;;;;13.18;12.38;;;;;;;3.24;100.00;101636.66;5024054;28;20047;-67
2022/10/11 02:37:58;;;;;;;12.70;11.93;;;;;;;3.56;100.00;101639.75;5026466;28;20386;-68
2022/10/11 02:40:34;;;;;;;12.68;11.95;;;;;;;3.56;100.00;101637.13;5025356;28;20168;-67
2022/10/11 02:43:35;;;;;;;13.00;12.20;;;;;;;3.48;100.00;101634.19;5023808;28;20022;-67
2022/10/11 02:46:02;;;;;;;12.40;11.70;;;;;;;3.45;100.00;101627.38;5025225;28;20485;-66
2022/10/11 02:48:30;;;;;;;12.45;11.75;;;;;;;3.44;100.00;101630.91;5029015;28;20045;-67
2022/10/11 02:50:56;;;;;;;12.93;12.13;;;;;;;3.37;100.00;101623.53;5022376;28;20385;-67
2022/10/11 02:53:23;;;;;;;13.68;12.77;;;;;;;3.35;100.00;101626.28;5016642;28;20111;-68
2022/10/11 02:55:51;;;;;;;12.68;11.88;;;;;;;3.16;100.00;101625.78;5026292;28;20498;-68
2022/10/11 02:58:18;;;;;;;12.95;12.15;;;;;;;3.13;100.00;101629.47;5020232;28;20034;-68
2022/10/11 03:00:43;;;;;;;12.50;11.80;;;;;;;3.14;100.00;101628.53;5028292;28;20029;-67
2022/10/11 03:03:09;;;;;;;12.07;11.48;;;;;;;3.14;100.00;101627.69;5021054;28;20109;-68
2022/10/11 03:05:39;;;;;;;12.60;11.90;;;;;;;3.11;100.00;101623.50;5024401;28;20425;-68
2022/10/11 03:08:10;;;;;;;12.85;12.15;;;;;;;2.87;100.00;101633.78;5029664;28;20033;-68
2022/10/11 03:10:36;;;;;;;14.25;13.32;;;;;;;2.90;100.00;101623.09;5025287;28;20032;-67
2022/10/11 03:13:01;;;;;;;13.07;12.27;;;;;;;3.13;100.00;101639.13;5027038;28;20083;-67
2022/10/11 03:15:27;;;;;;;13.02;12.23;;;;;;;3.11;100.00;101636.59;5016043;28;20124;-67
2022/10/11 03:17:53;;;;;;;12.90;12.18;;;;;;;3.10;100.00;101634.91;5026310;28;20049;-67
2022/10/11 03:20:19;;;;;;;13.95;13.05;;;;;;;2.67;100.00;101628.94;5027520;28;20378;-67
2022/10/11 03:22:44;;;;;;;13.60;12.75;;;;;;;2.73;100.00;101624.16;5027424;28;20100;-67
2022/10/11 03:25:10;;;;;;;13.43;12.63;;;;;;;2.55;100.00;101632.34;5029844;28;20044;-67
2022/10/11 03:27:36;;;;;;;13.70;12.90;;;;;;;2.48;100.00;101626.63;5025498;28;20389;-67
2022/10/11 03:30:01;;;;;;;13.38;12.57;;;;;;;2.55;100.00;101630.56;5023109;28;20029;-67
2022/10/11 03:32:27;;;;;;;12.75;12.02;;;;;;;2.67;100.00;101626.34;5024177;28;20578;-67
2022/10/11 03:34:53;;;;;;;13.98;13.07;;;;;;;2.42;100.00;101614.78;5024439;28;20057;-67
2022/10/11 03:37:18;;;;;;;13.13;12.32;;;;;;;2.65;100.00;101620.34;5025474;28;20116;-67
2022/10/11 03:39:44;;;;;;;13.02;12.32;;;;;;;2.55;100.00;101620.06;5022942;28;20029;-68
2022/10/11 03:42:11;;;;;;;13.70;12.90;;;;;;;2.40;100.00;101621.88;5021739;28;20630;-67
2022/10/11 03:44:37;;;;;;;13.43;12.63;;;;;;;2.49;100.00;101623.91;5024916;28;20029;-66
2022/10/11 03:47:03;;;;;;;13.63;12.82;;;;;;;2.59;100.00;101623.34;5023918;28;20061;-67
2022/10/11 03:49:29;;;;;;;13.27;12.48;;;;;;;2.46;100.00;101616.25;5023592;28;20683;-67
2022/10/11 03:51:54;;;;;;;13.38;12.57;;;;;;;2.62;100.00;101610.06;5022521;28;20041;-67
2022/10/11 03:54:20;;;;;;;13.20;12.40;;;;;;;2.63;100.00;101612.56;5021125;28;20029;-65
2022/10/11 03:56:45;;;;;;;13.43;12.63;;;;;;;2.63;100.00;101617.81;5025824;28;20057;-65
2022/10/11 03:59:10;;;;;;;13.88;12.98;;;;;;;2.53;100.00;101608.03;5024517;28;20029;-65
2022/10/11 04:01:37;;;;;;;14.50;13.50;;;;;;;2.59;100.00;101600.63;5002907;28;20028;-65
2022/10/11 04:04:03;;;;;;;13.65;12.80;;;;;;;2.58;100.00;101596.31;5025045;28;20172;-65
2022/10/11 04:06:28;;;;;;;12.82;12.07;;;;;;;2.55;100.00;101606.13;5020397;28;20022;-65
2022/10/11 04:08:54;;;;;;;13.25;12.45;;;;;;;2.74;100.00;101609.28;5028399;28;20447;-65
2022/10/11 04:11:19;;;;;;;13.13;12.32;;;;;;;2.54;100.00;101602.69;5024374;28;20036;-65
2022/10/11 04:13:45;;;;;;;13.73;12.88;;;;;;;2.59;100.00;101602.41;5027265;28;20046;-65
2022/10/11 04:16:11;;;;;;;13.68;12.80;;;;;;;2.63;100.00;101603.88;5026888;28;20100;-67
2022/10/11 04:18:36;;;;;;;13.88;12.98;;;;;;;2.51;100.00;101596.81;5026313;28;20444;-67
2022/10/11 04:21:02;;;;;;;13.45;12.63;;;;;;;2.48;100.00;101600.44;5027046;28;20437;-68
2022/10/11 04:23:29;;;;;;;13.93;13.02;;;;;;;2.62;100.00;101604.81;5021891;28;20037;-68
2022/10/11 04:25:55;;;;;;;12.70;12.00;;;;;;;2.58;100.00;101606.81;5026181;28;20487;-67
2022/10/11 04:28:20;;;;;;;12.48;11.77;;;;;;;2.76;100.00;101607.41;5026145;28;20025;-67
2022/10/11 04:30:46;;;;;;;12.38;11.68;;;;;;;3.08;100.00;101607.94;5024488;28;20125;-67
2022/10/11 04:33:12;;;;;;;12.65;11.88;;;;;;;3.60;100.00;101607.97;5024148;28;20116;-67
2022/10/11 04:35:38;;;;;;;12.55;11.75;;;;;;;3.85;100.00;101601.91;5031295;28;20033;-67
2022/10/11 04:38:03;;;;;;;12.40;11.68;;;;;;;4.21;100.00;101600.31;5027132;28;20160;-67
2022/10/11 04:40:29;;;;;;;13.07;12.27;;;;;;;4.62;100.00;101607.03;5027466;28;20064;-67
2022/10/11 04:42:54;;;;;;;12.00;11.30;;;;;;;4.89;100.00;101598.94;5025751;28;20104;-67
2022/10/11 04:45:20;;;;;;;11.77;11.07;;;;;;;5.16;100.00;101596.09;5029986;28;20072;-67
2022/10/11 04:47:47;;;;;;;11.20;10.60;;;;;;;5.48;100.00;101589.25;5027533;28;20121;-67
2022/10/11 04:50:12;;;;;;;11.95;11.27;;;;;;;6.09;100.00;101589.84;5024264;28;20049;-67
2022/10/11 04:52:38;;;;;;;10.82;10.23;;;;;;;6.33;100.00;101592.38;5023338;28;20113;-67
2022/10/11 04:55:04;;;;;;;11.68;11.05;;;;;;;6.48;100.00;101586.84;5030663;28;20033;-67
2022/10/11 04:57:30;;;;;;;11.27;10.68;;;;;;;6.76;100.00;101583.69;5026812;28;20029;-69
2022/10/11 04:59:55;;;;;;;12.52;11.82;;;;;;;7.28;100.00;101589.13;5028680;28;20114;-68
2022/10/11 05:02:21;;;;;;;12.90;12.13;;;;;;;7.43;100.00;101580.75;5027759;28;20049;-69
2022/10/11 05:04:46;;;;;;;12.38;11.68;;;;;;;8.51;100.00;101586.44;5020355;28;20022;-68
2022/10/11 05:07:12;;;;;;;11.35;10.75;;;;;;;10.58;100.00;101580.56;5024982;28;20037;-68
2022/10/11 05:09:37;;;;;;;11.80;11.20;;;;;;;11.03;100.00;101585.84;5028852;28;20033;-68
2022/10/11 05:12:03;;;;;;;11.52;10.93;;;;;;;12.89;100.00;101582.59;5025215;28;20033;-67
2022/10/11 05:14:28;;;;;;;11.95;11.35;;;;;;;12.09;100.00;101587.47;5022030;28;20285;-67
2022/10/11 05:16:54;;;;;;;12.23;11.63;;;;;;;13.47;100.00;101600.31;5024845;28;20090;-67
2022/10/11 05:19:19;;;;;;;12.48;11.88;;;;;;;12.95;100.00;101599.75;5021418;28;20037;-68
2022/10/11 05:21:45;;;;;;;12.30;11.70;;;;;;;14.31;100.00;101592.78;5021541;28;20022;-68
2022/10/11 05:24:10;;;;;;;11.68;11.07;;;;;;;15.41;97.59;101591.59;5029441;28;20511;-68
2022/10/11 05:26:36;;;;;;;12.07;11.48;;;;;;;15.75;92.06;101593.00;5024781;28;20030;-67
2022/10/11 05:29:01;;;;;;;10.95;10.45;;;;;;;17.38;80.24;101599.72;5027538;28;20032;-67
2022/10/11 05:31:27;;;;;;;12.32;11.73;;;;;;;16.69;81.38;101595.91;5024178;28;20044;-67
2022/10/11 05:33:52;;;;;;;11.45;10.95;;;;;;;17.04;76.23;101595.09;5018645;28;20061;-66
2022/10/11 05:36:18;;;;;;;12.05;11.45;;;;;;;15.51;80.22;101593.22;5017734;28;20033;-67
2022/10/11 05:38:44;;;;;;;12.07;11.48;;;;;;;18.63;69.53;101582.72;5028935;28;20025;-67
2022/10/11 05:41:12;;;;;;;11.75;11.25;;;;;;;20.60;55.66;101588.25;5030680;28;20038;-67
2022/10/11 05:43:38;;;;;;;11.60;11.10;;;;;;;21.01;53.36;101603.19;5019718;28;20475;-67
2022/10/11 05:46:04;;;;;;;11.23;10.73;;;;;;;20.19;53.94;101585.06;5022338;28;20093;-68
2022/10/11 05:48:29;;;;;;;11.23;10.73;;;;;;;20.26;50.62;101596.66;5024550;28;20049;-66
2022/10/11 05:51:03;;;;;;;11.55;11.05;;;;;;;21.60;51.14;101598.41;5019917;28;20047;-67
2022/10/11 05:53:30;;;;;;;11.32;10.82;;;;;;;21.97;48.76;101596.56;5021982;28;20036;-67
2022/10/11 05:55:56;;;;;;;10.75;10.25;;;;;;;21.76;45.91;101598.66;5020872;28;20075;-67
2022/10/11 05:58:21;;;;;;;11.55;11.05;;;;;;;22.54;44.74;101602.56;5024771;28;20111;-66
2022/10/11 06:00:47;;;;;;;11.30;10.80;;;;;;;20.24;48.58;101602.25;5025480;28;20484;-68
2022/10/11 06:03:13;;;;;;;12.00;11.50;;;;;;;14.23;89.05;101595.47;5028205;28;20108;-67
2022/10/11 06:05:39;;;;;;;11.75;11.25;;;;;;;17.00;81.34;101617.09;5026384;28;20025;-67
2022/10/11 06:08:07;;;;;;;11.93;11.40;;;;;;;18.62;75.23;101604.44;5029680;28;20092;-67
2022/10/11 06:10:34;;;;;;;12.20;11.60;;;;;;;20.22;63.73;101607.03;5020318;28;20485;-67
2022/10/11 06:12:59;;;;;;;12.00;11.50;;;;;;;21.88;55.89;101606.00;5025649;28;20032;-67
2022/10/11 06:15:25;;;;;;;11.85;11.35;;;;;;;21.14;54.40;101613.03;5025666;28;20081;-67
2022/10/11 06:17:51;;;;;;;11.00;10.50;;;;;;;19.95;62.64;101608.13;5028381;28;20033;-67
2022/10/11 06:20:17;;;;;;;11.90;11.40;;;;;;;21.24;51.58;101616.09;5022233;28;20477;-67
2022/10/11 06:22:42;;;;;;;11.30;10.80;;;;;;;22.59;48.84;101603.53;5028895;28;20113;-66
2022/10/11 06:25:08;;;;;;;11.57;11.07;;;;;;;21.09;48.30;101605.59;5024962;28;20090;-68
2022/10/11 06:27:34;;;;;;;11.90;11.40;;;;;;;18.87;53.65;101607.44;5026682;28;20029;-67
2022/10/11 06:29:59;;;;;;;11.95;11.45;;;;;;;16.84;70.39;101600.25;5024296;28;20465;-68
2022/10/11 06:32:25;;;;;;;11.68;11.18;;;;;;;21.43;55.91;101603.50;5022555;28;20484;-70
2022/10/11 06:34:51;;;;;;;11.73;11.23;;;;;;;21.46;51.70;101605.78;5022528;28;20064;-69
2022/10/11 06:37:16;;;;;;;11.13;10.63;;;;;;;18.40;60.78;101603.72;5025997;28;20368;-69
2022/10/11 06:39:42;;;;;;;11.13;10.63;;;;;;;22.18;58.30;101608.81;5014745;28;20536;-68
2022/10/11 06:42:10;;;;;;;11.23;10.73;;;;;;;22.16;52.58;101606.34;5028410;28;20030;-68
2022/10/11 06:44:36;;;;;;;11.20;10.70;;;;;;;19.42;54.39;101608.16;5025597;28;20084;-68
2022/10/11 06:47:01;;;;;;;10.93;10.43;;;;;;;15.68;82.16;101608.13;5027415;28;20558;-68
2022/10/11 06:49:27;;;;;;;11.30;10.80;;;;;;;13.11;99.63;101610.41;5025341;28;20046;-69
2022/10/11 06:51:52;;;;;;;11.57;11.07;;;;;;;14.69;100.00;101608.97;5029781;28;20455;-68
2022/10/11 06:54:36;;;;;;;11.50;11.00;;;;;;;17.42;94.32;101613.59;5026659;28;20086;-69
2022/10/11 06:57:02;;;;;;;11.50;11.00;;;;;;;19.37;74.16;101611.44;5028839;28;20029;-67
2022/10/11 06:59:28;;;;;;;11.38;10.88;;;;;;;13.52;100.00;101611.31;5021842;28;20033;-68
2022/10/11 07:01:53;;;;;;;11.10;10.60;;;;;;;18.25;74.29;101605.72;5023268;28;20026;-68
2022/10/11 07:04:19;;;;;;;10.82;10.32;;;;;;;16.34;93.04;101613.59;5029053;28;20032;-68
2022/10/11 07:06:44;;;;;;;11.00;10.50;;;;;;;15.39;94.48;101607.00;5028009;28;20084;-68
2022/10/11 07:09:09;;;;;;;11.18;10.68;;;;;;;18.57;80.93;101610.41;5024288;28;20566;-69
2022/10/11 07:11:35;;;;;;;11.15;10.65;;;;;;;19.24;70.14;101603.38;5024825;28;20465;-68
2022/10/11 07:14:06;;;;;;;11.23;10.73;;;;;;;20.38;66.37;101611.94;5027396;28;20041;-67
2022/10/11 07:16:35;;;;;;;10.82;10.32;;;;;;;16.77;79.24;101611.91;5027734;28;20029;-69
2022/10/11 07:19:04;;;;;;;10.73;10.23;;;;;;;16.02;87.10;101596.91;5027238;28;20048;-68
2022/10/11 07:21:32;;;;;;;11.15;10.65;;;;;;;15.19;86.76;101608.50;5026825;28;20062;-67
2022/10/11 07:23:58;;;;;;;10.90;10.40;;;;;;;19.85;69.91;101603.19;5028344;28;20033;-67
2022/10/11 07:26:24;;;;;;;10.63;10.13;;;;;;;21.37;60.27;101607.06;5022794;28;20079;-69
2022/10/11 07:28:49;;;;;;;11.18;10.68;;;;;;;19.43;66.77;101602.56;5027119;28;20029;-69
2022/10/11 07:31:19;;;;;;;10.82;10.32;;;;;;;19.82;67.31;101601.72;5022087;28;20033;-69
2022/10/11 07:33:45;;;;;;;10.85;10.35;;;;;;;19.88;67.54;101606.28;5027624;28;20116;-68
2022/10/11 07:36:10;;;;;;;11.40;10.90;;;;;;;20.72;64.77;101595.69;5025018;28;20175;-70
2022/10/11 07:38:44;;;;;;;10.82;10.32;;;;;;;21.69;56.16;101607.84;5025557;28;20025;-68
2022/10/11 07:41:10;;;;;;;11.43;10.93;;;;;;;21.18;54.08;101596.19;5025296;28;20029;-68
2022/10/11 07:43:36;;;;;;;11.50;11.00;;;;;;;24.78;45.41;101597.06;5021355;28;20104;-70
2022/10/11 07:46:03;;;;;;;11.40;10.90;;;;;;;21.13;52.06;101593.31;5024624;28;20029;-69
2022/10/11 07:48:32;;;;;;;11.55;11.05;;;;;;;23.33;48.25;101587.91;5026180;28;20452;-68
2022/10/11 07:51:06;;;;;;;11.45;10.95;;;;;;;24.22;47.07;101588.59;5025208;28;20032;-69
2022/10/11 07:53:37;;;;;;;11.02;10.52;;;;;;;25.12;44.47;101592.56;5027376;28;20045;-68
2022/10/11 07:56:03;;;;;;;11.15;10.65;;;;;;;23.61;44.51;101589.16;5022635;28;20721;-68
2022/10/11 07:58:28;;;;;;;11.43;10.93;;;;;;;25.93;43.06;101590.28;5021787;28;20026;-68
2022/10/11 08:00:54;;;;;;;11.40;10.90;;;;;;;24.55;43.48;101587.13;5043192;28;20484;-69
2022/10/11 08:03:20;;;;;;;11.27;10.77;;;;;;;24.93;44.46;101586.47;5025263;28;20477;-69
2022/10/11 08:05:45;;;;;;;11.70;11.20;;;;;;;25.53;42.99;101583.16;5029042;28;20082;-69
2022/10/11 08:08:10;;;;;;;11.25;10.75;;;;;;;26.06;41.66;101586.34;5029089;28;20025;-67
2022/10/11 08:10:38;;;;;;;11.10;10.60;;;;;;;25.00;41.73;101570.03;5025909;28;20057;-69
2022/10/11 08:13:03;;;;;;;10.70;10.20;;;;;;;25.57;44.09;101587.03;5024521;28;20108;-69
2022/10/11 08:15:28;;;;;;;11.50;11.00;;;;;;;26.34;41.39;101578.00;5024215;28;20132;-69
2022/10/11 08:17:54;;;;;;;11.40;10.90;;;;;;;25.35;43.21;101580.69;5020181;28;20037;-67
2022/10/11 08:20:19;;;;;;;11.57;11.07;;;;;;;26.18;42.47;101584.34;5022599;28;20034;-67
2022/10/11 08:22:45;;;;;;;11.27;10.77;;;;;;;24.72;45.14;101573.59;5021919;28;20025;-68
2022/10/11 08:25:10;;;;;;;11.48;10.98;;;;;;;25.58;46.34;101580.50;5002082;28;20118;-68
2022/10/11 08:27:36;;;;;;;11.60;11.10;;;;;;;27.58;40.41;101578.94;5028389;28;20024;-67
2022/10/11 08:30:01;;;;;;;11.15;10.65;;;;;;;23.65;42.58;101574.06;5023676;28;20481;-69
2022/10/11 08:32:28;;;;;;;11.43;10.93;;;;;;;24.32;44.88;101577.16;5025291;28;20025;-68
2022/10/11 08:34:54;;;;;;;11.07;10.57;;;;;;;24.67;43.20;101576.22;5025251;28;21855;-68
2022/10/11 08:37:19;;;;;;;11.75;11.25;;;;;;;21.86;46.50;101576.50;5025706;28;20128;-69
2022/10/11 08:39:45;;;;;;;11.45;10.95;;;;;;;23.51;45.66;101570.75;5021747;28;20366;-69
2022/10/11 08:42:21;;;;;;;11.70;11.20;;;;;;;26.07;38.83;101574.41;5018476;28;20515;-69
2022/10/11 08:44:55;;;;;;;11.85;11.35;;;;;;;22.79;44.43;101559.19;5026348;28;20099;-68
2022/10/11 08:47:31;;;;;;;;;;;;;;;24.98;43.28;101561.31;5029194;28;20568;-69
2022/10/11 08:49:58;;;;;;;11.27;10.77;;;;;;;27.17;38.02;101551.38;5023969;28;19948;-68
2022/10/11 08:52:35;;;;;;;11.10;10.60;;;;;;;28.15;36.97;101559.09;5024111;28;20025;-69
2022/10/11 08:55:14;;;;;;;11.43;10.93;;;;;;;27.05;37.38;101552.66;5027260;28;20028;-69
2022/10/11 08:57:44;;;;;;;11.20;10.70;;;;;;;28.39;35.10;101545.81;5019182;28;20029;-69
2022/10/11 09:00:16;;;;;;;11.27;10.77;;;;;;;25.28;40.55;101548.28;5022738;28;20104;-69
2022/10/11 09:03:09;;;;;;;11.13;10.63;;;;;;;25.22;38.62;101549.25;5020312;28;20029;-68
2022/10/11 09:05:50;;;;;;;10.95;10.45;;;;;;;26.54;37.54;101544.81;5020385;28;20072;-69
2022/10/11 09:08:49;;;;;;;11.40;10.90;;;;;;;27.66;35.09;101534.81;5025673;28;20068;-68
2022/10/11 09:11:48;;;;;;;11.05;10.55;;;;;;;27.65;34.33;101544.09;5020617;28;20079;-71
2022/10/11 09:14:31;;;;;;;10.90;10.40;;;;;;;28.14;33.35;101532.91;5030801;28;20095;-70
2022/10/11 09:17:22;;;;;;;11.43;10.93;;;;;;;26.71;33.99;101528.34;5030502;28;20364;-70
2022/10/11 09:20:11;;;;;;;11.30;10.80;;;;;;;27.64;33.21;101528.00;5029194;28;20033;-70
2022/10/11 09:22:42;;;;;;;11.30;10.80;;;;;;;24.58;37.90;101528.84;5027801;28;20033;-71
2022/10/11 09:25:34;;;;;;;11.05;10.55;;;;;;;23.22;39.50;101522.94;5029358;28;20029;-70
2022/10/11 09:28:04;;;;;;;12.00;11.40;;;;;;;23.68;40.55;101522.13;5028199;28;20025;-70
2022/10/11 09:30:31;;;;;;;11.35;10.85;;;;;;;23.19;42.10;101510.69;5024823;28;20033;-69
2022/10/11 09:33:13;;;;;;;11.60;11.10;;;;;;;21.94;45.74;101515.94;5028453;28;20083;-70
2022/10/11 09:35:43;;;;;;;13.20;12.50;;;;;;;21.94;47.15;101516.78;5028068;28;20083;-69
2022/10/11 09:38:36;;;;;;;12.02;11.43;;;;;;;22.19;46.31;101500.50;5027058;28;20120;-69
2022/10/11 09:41:29;;;;;;;12.57;11.98;;;;;;;20.45;51.28;101512.22;5026265;28;20544;-71
2022/10/11 09:43:55;;;;;;;11.90;11.30;;;;;;;20.76;48.95;101502.50;5025172;28;20026;-69
2022/10/11 09:46:22;;;;;;;12.15;11.55;;;;;;;21.08;48.49;101501.44;5024821;28;20022;-70
2022/10/11 09:48:50;;;;;;;11.70;11.13;;;;;;;21.50;47.54;101505.19;5022419;28;20137;-70
2022/10/11 09:51:20;;;;;;;12.35;11.75;;;;;;;21.23;48.59;101504.63;5025988;28;20080;-70
2022/10/11 09:53:54;;;;;;;12.00;11.40;;;;;;;20.95;50.55;101505.06;5023507;28;20045;-70
2022/10/11 09:56:21;;;;;;;12.18;11.57;;;;;;;21.12;46.01;101497.22;5024480;28;20107;-70
2022/10/11 09:58:47;;;;;;;13.00;12.30;;;;;;;20.37;47.52;101494.41;5024884;28;20048;-70
2022/10/11 10:01:23;;;;;;;11.88;11.27;;;;;;;19.27;51.06;101489.97;5022042;28;20798;-70
2022/10/11 10:04:04;;;;;;;12.20;11.60;;;;;;;19.81;50.74;101488.84;5026124;28;20038;-69
2022/10/11 10:06:29;;;;;;;13.13;12.43;;;;;;;19.10;52.53;101494.97;5024683;28;20104;-70
2022/10/11 10:09:19;;;;;;;12.40;11.80;;;;;;;19.16;54.22;101490.59;5028315;28;20033;-70
2022/10/11 10:11:45;;;;;;;11.48;10.90;;;;;;;18.92;53.86;101483.97;5025006;28;20034;-69
2022/10/11 10:14:27;;;;;;;11.27;10.77;;;;;;;18.83;55.18;101480.66;5026694;28;20036;-69
2022/10/11 10:17:21;;;;;;;11.40;10.90;;;;;;;19.32;54.57;101485.63;5024815;28;20029;-70
2022/10/11 10:19:50;;;;;;;12.15;11.55;;;;;;;19.48;54.48;101475.47;5020948;28;20404;-69
2022/10/11 10:22:36;;;;;;;11.07;10.57;;;;;;;18.95;56.05;101470.97;5025240;28;20071;-69
2022/10/11 10:25:06;;;;;;;11.82;11.23;;;;;;;18.66;59.29;101471.34;5022494;28;20128;-69
2022/10/11 10:27:33;;;;;;;11.27;10.77;;;;;;;19.16;56.07;101479.81;5028936;28;20022;-69
2022/10/11 10:30:14;;;;;;;12.52;11.90;;;;;;;18.81;59.42;101465.78;5023079;28;20025;-70
2022/10/11 10:33:03;;;;;;;12.13;11.52;;;;;;;18.98;58.09;101467.84;5023978;28;20034;-69
2022/10/11 10:35:35;;;;;;;11.55;10.98;;;;;;;18.60;59.81;101461.38;5028237;28;20026;-70
2022/10/11 10:38:30;;;;;;;11.85;11.25;;;;;;;19.14;59.57;101463.91;5023670;28;20432;-70
2022/10/11 10:41:01;;;;;;;12.45;11.80;;;;;;;18.73;58.59;101462.28;5020817;28;20048;-70
2022/10/11 10:43:32;;;;;;;11.90;11.30;;;;;;;18.82;58.29;101456.69;5026210;28;20587;-69
2022/10/11 10:46:19;;;;;;;11.45;10.93;;;;;;;19.11;59.19;101456.25;5024783;28;20041;-68
2022/10/11 10:49:14;;;;;;;12.35;11.73;;;;;;;19.47;61.67;101460.34;5024087;28;20048;-70
2022/10/11 10:52:21;;;;;;;11.80;11.20;;;;;;;19.65;55.98;101444.38;5015272;28;20202;-68
2022/10/11 10:54:46;;;;;;;11.82;11.23;;;;;;;19.55;56.34;101441.28;5025594;28;20496;-70
2022/10/11 10:57:24;;;;;;;11.55;10.95;;;;;;;19.15;59.31;101438.66;5022211;28;20025;-70
2022/10/11 11:00:16;;;;;;;11.40;10.82;;;;;;;18.95;58.17;101436.00;5029182;28;20212;-69
2022/10/11 11:02:59;;;;;;;11.70;11.10;;;;;;;18.97;57.95;101433.94;5025081;28;20116;-70
2022/10/11 11:05:43;;;;;;;11.57;10.98;;;;;;;18.92;57.46;101424.81;5020157;28;20061;-69
2022/10/11 11:08:24;;;;;;;11.38;10.88;;;;;;;19.10;57.07;101426.91;5022979;28;20045;-68
2022/10/11 11:11:01;;;;;;;13.35;12.65;;;;;;;18.88;58.63;101427.13;5023624;28;20481;-68
2022/10/11 11:14:11;;;;;;;11.00;10.50;;;;;;;19.11;56.12;101428.53;5028973;28;20466;-68
2022/10/11 11:16:47;;;;;;;11.15;10.65;;;;;;;18.79;55.12;101433.72;4989333;28;20037;-68
2022/10/11 11:19:28;;;;;;;11.75;11.15;;;;;;;18.67;57.30;101419.25;5056829;28;20034;-68
2022/10/11 11:22:15;;;;;;;11.98;11.38;;;;;;;19.10;55.90;101424.22;5024415;28;20053;-69
2022/10/11 11:25:07;;;;;;;11.85;11.25;;;;;;;19.40;55.97;101430.75;5025541;28;20041;-68